sensor_id;sensor_type;location;lat;lon;timestamp;pressure;altitude;pressure_sealevel;temperature;humidity
10366;BME280;5229;41.820;23.490;2023-05-19T00:00:18;90136.97;;;12.44;68.49
10366;BME280;5229;41.820;23.490;2023-05-19T00:02:46;90133.28;;;12.45;68.71
10366;BME280;5229;41.820;23.490;2023-05-19T00:05:13;90136.19;;;12.43;69.07
10366;BME280;5229;41.820;23.490;2023-05-19T00:07:43;90131.78;;;12.44;68.81
10366;BME280;5229;41.820;23.490;2023-05-19T00:10:13;90127.31;;;12.44;68.79
10366;BME280;5229;41.820;23.490;2023-05-19T00:12:40;90129.19;;;12.44;69.05
10366;BME280;5229;41.820;23.490;2023-05-19T00:15:09;90138.03;;;12.43;69.08
10366;BME280;5229;41.820;23.490;2023-05-19T00:17:36;90136.97;;;12.44;68.49
10366;BME280;5229;41.820;23.490;2023-05-19T00:20:07;90135.59;;;12.46;68.13
10366;BME280;5229;41.820;23.490;2023-05-19T00:22:36;90134.81;;;12.46;68.51
10366;BME280;5229;41.820;23.490;2023-05-19T00:25:03;90133.72;;;12.47;68.07
10366;BME280;5229;41.820;23.490;2023-05-19T00:27:32;90140.16;;;12.49;68.73
10366;BME280;5229;41.820;23.490;2023-05-19T00:29:58;90139.41;;;12.49;68.76
10366;BME280;5229;41.820;23.490;2023-05-19T00:32:25;90141.53;;;12.47;68.74
10366;BME280;5229;41.820;23.490;2023-05-19T00:34:52;90139.41;;;12.49;68.30
10366;BME280;5229;41.820;23.490;2023-05-19T00:37:19;90141.53;;;12.47;69.06
10366;BME280;5229;41.820;23.490;2023-05-19T00:39:46;90136.97;;;12.44;68.85
10366;BME280;5229;41.820;23.490;2023-05-19T00:42:13;90141.25;;;12.40;68.48
10366;BME280;5229;41.820;23.490;2023-05-19T00:44:41;90129.94;;;12.36;69.06
10366;BME280;5229;41.820;23.490;2023-05-19T00:47:08;90131.63;;;12.32;68.79
10366;BME280;5229;41.820;23.490;2023-05-19T00:49:34;90145.72;;;12.31;69.25
10366;BME280;5229;41.820;23.490;2023-05-19T00:52:02;90141.72;;;12.33;68.77
10366;BME280;5229;41.820;23.490;2023-05-19T00:54:31;90130.72;;;12.36;68.74
10366;BME280;5229;41.820;23.490;2023-05-19T00:56:59;90125.22;;;12.38;68.98
10366;BME280;5229;41.820;23.490;2023-05-19T00:59:26;90137.44;;;12.37;68.37
10366;BME280;5229;41.820;23.490;2023-05-19T01:01:54;90125.63;;;12.40;69.01
10366;BME280;5229;41.820;23.490;2023-05-19T01:04:21;90125.03;;;12.43;68.37
10366;BME280;5229;41.820;23.490;2023-05-19T01:06:50;90114.31;;;12.44;68.67
10366;BME280;5229;41.820;23.490;2023-05-19T01:09:19;90118.00;;;12.43;68.86
10366;BME280;5229;41.820;23.490;2023-05-19T01:11:46;90107.91;;;12.42;68.33
10366;BME280;5229;41.820;23.490;2023-05-19T01:14:13;90106.38;;;12.41;68.53
10366;BME280;5229;41.820;23.490;2023-05-19T01:16:45;90104.84;;;12.40;69.07
10366;BME280;5229;41.820;23.490;2023-05-19T01:19:24;90104.84;;;12.40;68.62
10366;BME280;5229;41.820;23.490;2023-05-19T01:22:13;90116.78;;;12.41;69.33
10366;BME280;5229;41.820;23.490;2023-05-19T01:25:07;90122.00;;;12.41;69.39
10366;BME280;5229;41.820;23.490;2023-05-19T01:28:04;90117.41;;;12.38;68.95
10366;BME280;5229;41.820;23.490;2023-05-19T01:30:41;90110.81;;;12.40;68.79
10366;BME280;5229;41.820;23.490;2023-05-19T01:33:11;90112.50;;;12.45;69.17
10366;BME280;5229;41.820;23.490;2023-05-19T01:35:40;90114.47;;;12.48;69.14
10366;BME280;5229;41.820;23.490;2023-05-19T01:38:08;90115.69;;;12.50;69.14
10366;BME280;5229;41.820;23.490;2023-05-19T01:40:36;90112.00;;;12.51;68.99
10366;BME280;5229;41.820;23.490;2023-05-19T01:43:05;90107.56;;;12.52;69.28
10366;BME280;5229;41.820;23.490;2023-05-19T01:45:33;90109.72;;;12.50;69.10
10366;BME280;5229;41.820;23.490;2023-05-19T01:48:02;90113.53;;;12.52;68.97
10366;BME280;5229;41.820;23.490;2023-05-19T01:50:30;90114.28;;;12.53;69.28
10366;BME280;5229;41.820;23.490;2023-05-19T01:52:58;90101.59;;;12.51;69.78
10366;BME280;5229;41.820;23.490;2023-05-19T01:55:25;90103.44;;;12.51;69.50
10366;BME280;5229;41.820;23.490;2023-05-19T01:58:01;90103.00;;;12.49;69.11
10366;BME280;5229;41.820;23.490;2023-05-19T02:00:36;90099.31;;;12.50;69.77
10366;BME280;5229;41.820;23.490;2023-05-19T02:03:15;90099.91;;;12.47;69.71
10366;BME280;5229;41.820;23.490;2023-05-19T02:05:50;90095.50;;;12.47;69.67
10366;BME280;5229;41.820;23.490;2023-05-19T02:08:27;90101.00;;;12.46;69.77
10366;BME280;5229;41.820;23.490;2023-05-19T02:10:59;90098.09;;;12.47;69.69
10366;BME280;5229;41.820;23.490;2023-05-19T02:13:30;90098.41;;;12.46;69.24
10366;BME280;5229;41.820;23.490;2023-05-19T02:16:04;90105.78;;;12.44;69.77
10366;BME280;5229;41.820;23.490;2023-05-19T02:18:33;90110.97;;;12.44;69.44
10366;BME280;5229;41.820;23.490;2023-05-19T02:21:00;90115.09;;;12.45;69.58
10366;BME280;5229;41.820;23.490;2023-05-19T02:23:27;90117.53;;;12.41;69.88
10366;BME280;5229;41.820;23.490;2023-05-19T02:25:54;90117.41;;;12.38;69.03
10366;BME280;5229;41.820;23.490;2023-05-19T02:28:21;90119.84;;;12.34;69.17
10366;BME280;5229;41.820;23.490;2023-05-19T02:30:48;90124.91;;;12.31;69.66
10366;BME280;5229;41.820;23.490;2023-05-19T02:33:14;90118.34;;;12.25;69.24
10366;BME280;5229;41.820;23.490;2023-05-19T02:35:43;90107.66;;;12.18;69.61
10366;BME280;5229;41.820;23.490;2023-05-19T02:38:09;90112.88;;;12.09;69.12
10366;BME280;5229;41.820;23.490;2023-05-19T02:40:36;90115.19;;;12.02;69.62
10366;BME280;5229;41.820;23.490;2023-05-19T02:43:03;90106.78;;;11.97;69.85
10366;BME280;5229;41.820;23.490;2023-05-19T02:45:30;90111.06;;;11.93;69.87
10366;BME280;5229;41.820;23.490;2023-05-19T02:47:58;90108.34;;;11.89;70.27
10366;BME280;5229;41.820;23.490;2023-05-19T02:50:25;90111.84;;;11.84;70.01
10366;BME280;5229;41.820;23.490;2023-05-19T02:52:53;90117.66;;;11.81;70.32
10366;BME280;5229;41.820;23.490;2023-05-19T02:55:19;90121.34;;;11.80;69.78
10366;BME280;5229;41.820;23.490;2023-05-19T02:57:46;90112.34;;;11.78;70.44
10366;BME280;5229;41.820;23.490;2023-05-19T03:00:14;90114.78;;;11.74;70.51
10366;BME280;5229;41.820;23.490;2023-05-19T03:02:41;90120.75;;;11.75;70.06
10366;BME280;5229;41.820;23.490;2023-05-19T03:05:09;90128.66;;;11.70;69.82
10366;BME280;5229;41.820;23.490;2023-05-19T03:07:36;90140.44;;;11.67;70.64
10366;BME280;5229;41.820;23.490;2023-05-19T03:10:05;90140.44;;;11.67;70.39
10366;BME280;5229;41.820;23.490;2023-05-19T03:12:33;90133.25;;;11.64;69.95
10366;BME280;5229;41.820;23.490;2023-05-19T03:14:59;90144.13;;;11.66;70.65
10366;BME280;5229;41.820;23.490;2023-05-19T03:17:26;90145.03;;;11.70;69.96
10366;BME280;5229;41.820;23.490;2023-05-19T03:19:58;90143.34;;;11.74;70.64
10366;BME280;5229;41.820;23.490;2023-05-19T03:22:25;90140.13;;;11.77;70.19
10366;BME280;5229;41.820;23.490;2023-05-19T03:24:52;90136.16;;;11.80;70.67
10366;BME280;5229;41.820;23.490;2023-05-19T03:27:20;90141.22;;;11.85;70.63
10366;BME280;5229;41.820;23.490;2023-05-19T03:29:47;90139.53;;;11.89;70.29
10366;BME280;5229;41.820;23.490;2023-05-19T03:32:13;90154.94;;;11.94;70.14
10366;BME280;5229;41.820;23.490;2023-05-19T03:34:40;90140.25;;;11.98;70.11
10366;BME280;5229;41.820;23.490;2023-05-19T03:37:07;90137.97;;;11.97;69.99
10366;BME280;5229;41.820;23.490;2023-05-19T03:39:35;90148.97;;;11.93;70.43
10366;BME280;5229;41.820;23.490;2023-05-19T03:42:02;90144.72;;;11.98;70.01
10366;BME280;5229;41.820;23.490;2023-05-19T03:44:30;90126.97;;;12.00;70.84
10366;BME280;5229;41.820;23.490;2023-05-19T03:46:57;90130.03;;;12.02;69.97
10366;BME280;5229;41.820;23.490;2023-05-19T03:49:23;90136.56;;;12.08;70.02
10366;BME280;5229;41.820;23.490;2023-05-19T03:51:50;90129.06;;;12.15;70.52
10366;BME280;5229;41.820;23.490;2023-05-19T03:54:17;90135.03;;;12.24;70.29
10366;BME280;5229;41.820;23.490;2023-05-19T03:56:45;90144.63;;;12.32;70.47
10366;BME280;5229;41.820;23.490;2023-05-19T03:59:12;90147.22;;;12.40;70.19
10366;BME280;5229;41.820;23.490;2023-05-19T04:01:41;90154.53;;;12.47;69.90
10366;BME280;5229;41.820;23.490;2023-05-19T04:04:08;90161.88;;;12.53;70.08
10366;BME280;5229;41.820;23.490;2023-05-19T04:06:35;90151.00;;;12.60;69.92
10366;BME280;5229;41.820;23.490;2023-05-19T04:09:02;90151.28;;;12.67;70.04
10366;BME280;5229;41.820;23.490;2023-05-19T04:11:36;90153.72;;;12.72;69.84
10366;BME280;5229;41.820;23.490;2023-05-19T04:14:03;90148.31;;;12.77;69.58
10366;BME280;5229;41.820;23.490;2023-05-19T04:16:30;90152.59;;;12.81;70.08
10366;BME280;5229;41.820;23.490;2023-05-19T04:18:59;90156.53;;;12.87;69.78
10366;BME280;5229;41.820;23.490;2023-05-19T04:21:26;90161.59;;;12.92;69.95
10366;BME280;5229;41.820;23.490;2023-05-19T04:23:52;90159.88;;;12.96;70.09
10366;BME280;5229;41.820;23.490;2023-05-19T04:26:19;90160.66;;;12.97;70.01
10366;BME280;5229;41.820;23.490;2023-05-19T04:28:47;90158.53;;;12.99;70.11
10366;BME280;5229;41.820;23.490;2023-05-19T04:31:13;90159.25;;;13.08;69.78
10366;BME280;5229;41.820;23.490;2023-05-19T04:33:40;90156.56;;;13.25;70.02
10366;BME280;5229;41.820;23.490;2023-05-19T04:36:09;90156.72;;;13.49;70.07
10366;BME280;5229;41.820;23.490;2023-05-19T04:38:36;90154.38;;;13.76;69.79
10366;BME280;5229;41.820;23.490;2023-05-19T04:41:04;90161.03;;;14.06;69.30
10366;BME280;5229;41.820;23.490;2023-05-19T04:43:34;90173.25;;;14.35;68.77
10366;BME280;5229;41.820;23.490;2023-05-19T04:46:01;90181.56;;;14.49;67.93
10366;BME280;5229;41.820;23.490;2023-05-19T04:48:30;90177.66;;;14.55;68.26
10366;BME280;5229;41.820;23.490;2023-05-19T04:50:57;90176.91;;;14.54;68.41
10366;BME280;5229;41.820;23.490;2023-05-19T04:53:27;90182.88;;;14.55;67.59
10366;BME280;5229;41.820;23.490;2023-05-19T04:55:54;90169.41;;;14.53;67.71
10366;BME280;5229;41.820;23.490;2023-05-19T04:58:22;90181.81;;;14.56;67.68
10366;BME280;5229;41.820;23.490;2023-05-19T05:00:50;90176.81;;;14.63;67.35
10366;BME280;5229;41.820;23.490;2023-05-19T05:03:16;90173.25;;;14.80;67.43
10366;BME280;5229;41.820;23.490;2023-05-19T05:05:47;90184.50;;;15.04;67.04
10366;BME280;5229;41.820;23.490;2023-05-19T05:08:16;90177.66;;;15.24;67.04
10366;BME280;5229;41.820;23.490;2023-05-19T05:10:49;90175.59;;;15.53;66.79
10366;BME280;5229;41.820;23.490;2023-05-19T05:13:17;90189.00;;;15.76;66.87
10366;BME280;5229;41.820;23.490;2023-05-19T05:15:44;90183.19;;;15.94;65.86
10366;BME280;5229;41.820;23.490;2023-05-19T05:18:12;90183.38;;;16.01;65.79
10366;BME280;5229;41.820;23.490;2023-05-19T05:20:40;90191.44;;;16.08;65.19
10366;BME280;5229;41.820;23.490;2023-05-19T05:23:07;90186.59;;;16.22;65.42
10366;BME280;5229;41.820;23.490;2023-05-19T05:25:35;90186.88;;;16.33;64.61
10366;BME280;5229;41.820;23.490;2023-05-19T05:28:04;90192.31;;;16.40;64.60
10366;BME280;5229;41.820;23.490;2023-05-19T05:30:32;90201.56;;;16.49;64.41
10366;BME280;5229;41.820;23.490;2023-05-19T05:32:59;90199.00;;;16.65;64.55
10366;BME280;5229;41.820;23.490;2023-05-19T05:35:27;90203.16;;;16.81;64.23
10366;BME280;5229;41.820;23.490;2023-05-19T05:37:54;90207.44;;;17.01;63.63
10366;BME280;5229;41.820;23.490;2023-05-19T05:40:20;90205.00;;;17.24;62.88
10366;BME280;5229;41.820;23.490;2023-05-19T05:42:47;90196.69;;;17.50;62.67
10366;BME280;5229;41.820;23.490;2023-05-19T05:45:16;90204.09;;;17.79;62.03
10366;BME280;5229;41.820;23.490;2023-05-19T05:47:43;90209.28;;;18.10;61.58
10366;BME280;5229;41.820;23.490;2023-05-19T05:50:11;90205.13;;;18.43;61.20
10366;BME280;5229;41.820;23.490;2023-05-19T05:52:39;90209.88;;;18.76;60.49
10366;BME280;5229;41.820;23.490;2023-05-19T05:55:08;90212.69;;;19.05;59.43
10366;BME280;5229;41.820;23.490;2023-05-19T05:57:34;90217.31;;;19.31;59.24
10366;BME280;5229;41.820;23.490;2023-05-19T06:00:02;90215.03;;;19.52;58.96
10366;BME280;5229;41.820;23.490;2023-05-19T06:02:33;90214.25;;;19.74;58.14
10366;BME280;5229;41.820;23.490;2023-05-19T06:05:01;90212.31;;;19.93;56.87
10366;BME280;5229;41.820;23.490;2023-05-19T06:07:27;90222.41;;;20.14;56.50
10366;BME280;5229;41.820;23.490;2023-05-19T06:09:54;90221.59;;;20.36;56.35
10366;BME280;5229;41.820;23.490;2023-05-19T06:12:21;90227.16;;;20.57;55.75
10366;BME280;5229;41.820;23.490;2023-05-19T06:14:48;90227.09;;;20.83;54.03
10366;BME280;5229;41.820;23.490;2023-05-19T06:17:16;90228.88;;;21.05;53.56
10366;BME280;5229;41.820;23.490;2023-05-19T06:19:44;90225.69;;;21.26;52.93
10366;BME280;5229;41.820;23.490;2023-05-19T06:22:11;90222.88;;;21.45;51.55
10366;BME280;5229;41.820;23.490;2023-05-19T06:24:38;90226.09;;;21.68;50.36
10366;BME280;5229;41.820;23.490;2023-05-19T06:27:04;90227.84;;;21.93;49.15
10366;BME280;5229;41.820;23.490;2023-05-19T06:29:31;90229.19;;;22.20;48.24
10366;BME280;5229;41.820;23.490;2023-05-19T06:31:58;90237.28;;;22.45;47.22
10366;BME280;5229;41.820;23.490;2023-05-19T06:34:25;90229.03;;;22.53;46.47
10366;BME280;5229;41.820;23.490;2023-05-19T06:36:53;90239.66;;;22.60;45.96
10366;BME280;5229;41.820;23.490;2023-05-19T06:39:20;90232.88;;;22.63;47.10
10366;BME280;5229;41.820;23.490;2023-05-19T06:41:47;90233.66;;;22.67;47.57
10366;BME280;5229;41.820;23.490;2023-05-19T06:44:14;90231.81;;;22.74;47.25
10366;BME280;5229;41.820;23.490;2023-05-19T06:46:40;90229.19;;;22.85;47.04
10366;BME280;5229;41.820;23.490;2023-05-19T06:49:09;90228.53;;;23.06;46.18
10366;BME280;5229;41.820;23.490;2023-05-19T06:51:36;90228.25;;;23.25;45.41
10366;BME280;5229;41.820;23.490;2023-05-19T06:54:04;90236.63;;;23.44;44.19
10366;BME280;5229;41.820;23.490;2023-05-19T06:56:31;90230.25;;;23.63;44.59
10366;BME280;5229;41.820;23.490;2023-05-19T06:58:58;90224.22;;;23.87;45.24
10366;BME280;5229;41.820;23.490;2023-05-19T07:01:24;90230.66;;;24.00;44.74
10366;BME280;5229;41.820;23.490;2023-05-19T07:03:52;90238.63;;;23.93;44.66
10366;BME280;5229;41.820;23.490;2023-05-19T07:06:18;90231.00;;;23.74;44.62
10366;BME280;5229;41.820;23.490;2023-05-19T07:08:45;90232.88;;;23.56;45.00
10366;BME280;5229;41.820;23.490;2023-05-19T07:13:40;90240.06;;;23.55;45.60
10366;BME280;5229;41.820;23.490;2023-05-19T07:16:07;90245.38;;;23.66;45.30
10366;BME280;5229;41.820;23.490;2023-05-19T07:18:33;90229.88;;;23.82;45.03
10366;BME280;5229;41.820;23.490;2023-05-19T07:21:00;90229.19;;;24.09;42.66
10366;BME280;5229;41.820;23.490;2023-05-19T07:23:27;90235.97;;;24.42;40.83
10366;BME280;5229;41.820;23.490;2023-05-19T07:25:54;90245.44;;;24.64;39.19
10366;BME280;5229;41.820;23.490;2023-05-19T07:28:23;90245.41;;;24.78;37.83
10366;BME280;5229;41.820;23.490;2023-05-19T07:30:49;90245.34;;;24.92;39.28
10366;BME280;5229;41.820;23.490;2023-05-19T07:33:17;90235.78;;;25.19;38.94
10366;BME280;5229;41.820;23.490;2023-05-19T07:35:44;90243.66;;;25.47;38.18
10366;BME280;5229;41.820;23.490;2023-05-19T07:38:11;90253.81;;;25.66;37.96
10366;BME280;5229;41.820;23.490;2023-05-19T07:40:38;90248.06;;;25.78;36.71
10366;BME280;5229;41.820;23.490;2023-05-19T07:43:05;90250.97;;;25.94;35.87
10366;BME280;5229;41.820;23.490;2023-05-19T07:45:33;90265.34;;;26.07;34.97
10366;BME280;5229;41.820;23.490;2023-05-19T07:48:00;90255.16;;;25.99;34.68
10366;BME280;5229;41.820;23.490;2023-05-19T07:50:26;90261.69;;;25.80;35.57
10366;BME280;5229;41.820;23.490;2023-05-19T07:52:53;90265.59;;;25.65;36.44
10366;BME280;5229;41.820;23.490;2023-05-19T07:55:20;90269.44;;;25.53;37.48
10366;BME280;5229;41.820;23.490;2023-05-19T07:57:47;90268.69;;;25.49;37.15
10366;BME280;5229;41.820;23.490;2023-05-19T08:00:15;90267.91;;;25.56;36.39
10366;BME280;5229;41.820;23.490;2023-05-19T08:02:43;90272.38;;;25.73;35.20
10366;BME280;5229;41.820;23.490;2023-05-19T08:05:10;90267.81;;;25.74;34.48
10366;BME280;5229;41.820;23.490;2023-05-19T08:07:37;90269.34;;;25.71;33.82
10366;BME280;5229;41.820;23.490;2023-05-19T08:10:04;90279.56;;;25.76;34.35
10366;BME280;5229;41.820;23.490;2023-05-19T08:12:31;90276.88;;;25.83;34.25
10366;BME280;5229;41.820;23.490;2023-05-19T08:14:58;90277.53;;;26.01;34.07
10366;BME280;5229;41.820;23.490;2023-05-19T08:17:25;90285.09;;;26.10;34.35
10366;BME280;5229;41.820;23.490;2023-05-19T08:19:53;90284.34;;;26.09;33.21
10366;BME280;5229;41.820;23.490;2023-05-19T08:22:20;90281.25;;;26.18;33.39
10366;BME280;5229;41.820;23.490;2023-05-19T08:24:46;90281.91;;;26.32;33.31
10366;BME280;5229;41.820;23.490;2023-05-19T08:27:14;90287.84;;;26.50;32.62
10366;BME280;5229;41.820;23.490;2023-05-19T08:29:41;90294.56;;;26.65;32.57
10366;BME280;5229;41.820;23.490;2023-05-19T08:32:07;90289.13;;;26.79;31.95
10366;BME280;5229;41.820;23.490;2023-05-19T08:34:34;90291.19;;;27.02;32.35
10366;BME280;5229;41.820;23.490;2023-05-19T08:37:02;90286.88;;;27.52;31.23
10366;BME280;5229;41.820;23.490;2023-05-19T08:39:29;90293.66;;;28.70;30.09
10366;BME280;5229;41.820;23.490;2023-05-19T08:41:58;90299.53;;;30.28;27.28
10366;BME280;5229;41.820;23.490;2023-05-19T08:44:25;90298.06;;;31.52;25.74
10366;BME280;5229;41.820;23.490;2023-05-19T08:46:53;90307.72;;;32.06;25.24
10366;BME280;5229;41.820;23.490;2023-05-19T08:49:23;90301.13;;;32.98;23.84
10366;BME280;5229;41.820;23.490;2023-05-19T08:51:57;90311.72;;;33.95;22.67
10366;BME280;5229;41.820;23.490;2023-05-19T08:54:31;90317.13;;;34.99;22.35
10366;BME280;5229;41.820;23.490;2023-05-19T08:57:00;90320.72;;;35.99;21.15
10366;BME280;5229;41.820;23.490;2023-05-19T08:59:27;90326.31;;;36.82;20.13
10366;BME280;5229;41.820;23.490;2023-05-19T09:01:54;90308.91;;;37.39;19.48
10366;BME280;5229;41.820;23.490;2023-05-19T09:04:23;90319.00;;;37.06;19.96
10366;BME280;5229;41.820;23.490;2023-05-19T09:06:52;90325.00;;;37.10;19.29
10366;BME280;5229;41.820;23.490;2023-05-19T09:09:19;90321.66;;;37.48;18.96
10366;BME280;5229;41.820;23.490;2023-05-19T09:11:47;90310.56;;;38.08;17.82
10366;BME280;5229;41.820;23.490;2023-05-19T09:14:14;90314.16;;;38.43;17.49
10366;BME280;5229;41.820;23.490;2023-05-19T09:16:41;90309.81;;;38.60;16.96
10366;BME280;5229;41.820;23.490;2023-05-19T09:19:12;90308.47;;;38.84;17.08
10366;BME280;5229;41.820;23.490;2023-05-19T09:21:40;90301.38;;;39.36;17.28
10366;BME280;5229;41.820;23.490;2023-05-19T09:24:08;90313.63;;;40.06;16.32
10366;BME280;5229;41.820;23.490;2023-05-19T09:26:36;90319.00;;;40.40;15.95
10366;BME280;5229;41.820;23.490;2023-05-19T09:29:11;90314.19;;;40.10;15.60
10366;BME280;5229;41.820;23.490;2023-05-19T09:31:38;90308.56;;;38.75;16.49
10366;BME280;5229;41.820;23.490;2023-05-19T09:34:11;90290.00;;;36.74;17.68
10366;BME280;5229;41.820;23.490;2023-05-19T09:36:39;90294.50;;;35.06;19.17
10366;BME280;5229;41.820;23.490;2023-05-19T09:39:11;90280.63;;;33.60;20.54
10366;BME280;5229;41.820;23.490;2023-05-19T09:41:39;90289.66;;;32.48;21.40
10366;BME280;5229;41.820;23.490;2023-05-19T09:44:05;90294.47;;;31.58;22.48
10366;BME280;5229;41.820;23.490;2023-05-19T09:46:34;90296.91;;;30.92;22.97
10366;BME280;5229;41.820;23.490;2023-05-19T09:49:07;90294.00;;;30.51;23.44
10366;BME280;5229;41.820;23.490;2023-05-19T09:51:34;90294.88;;;31.12;23.05
10366;BME280;5229;41.820;23.490;2023-05-19T09:54:01;90297.16;;;31.14;22.60
10366;BME280;5229;41.820;23.490;2023-05-19T09:56:30;90289.72;;;30.73;23.05
10366;BME280;5229;41.820;23.490;2023-05-19T09:59:00;90276.78;;;30.36;23.33
10366;BME280;5229;41.820;23.490;2023-05-19T10:01:27;90277.03;;;30.06;24.08
10366;BME280;5229;41.820;23.490;2023-05-19T10:03:57;90280.59;;;30.87;23.24
10366;BME280;5229;41.820;23.490;2023-05-19T10:06:24;90270.34;;;32.24;21.45
10366;BME280;5229;41.820;23.490;2023-05-19T10:08:51;90276.03;;;33.61;20.24
10366;BME280;5229;41.820;23.490;2023-05-19T10:11:19;90270.66;;;34.65;19.20
10366;BME280;5229;41.820;23.490;2023-05-19T10:13:49;90270.91;;;35.37;18.90
10366;BME280;5229;41.820;23.490;2023-05-19T10:16:17;90265.09;;;35.84;18.32
10366;BME280;5229;41.820;23.490;2023-05-19T10:18:46;90281.38;;;35.71;17.96
10366;BME280;5229;41.820;23.490;2023-05-19T10:21:16;90285.00;;;34.53;19.03
10366;BME280;5229;41.820;23.490;2023-05-19T10:23:43;90274.66;;;33.09;21.02
10366;BME280;5229;41.820;23.490;2023-05-19T10:26:10;90268.59;;;31.80;22.13
10366;BME280;5229;41.820;23.490;2023-05-19T10:28:40;90270.88;;;30.77;24.01
10366;BME280;5229;41.820;23.490;2023-05-19T10:31:11;90268.63;;;29.88;24.44
10366;BME280;5229;41.820;23.490;2023-05-19T10:33:55;90259.69;;;29.16;25.20
10366;BME280;5229;41.820;23.490;2023-05-19T10:36:46;90258.78;;;28.57;26.29
10366;BME280;5229;41.820;23.490;2023-05-19T10:39:21;90254.50;;;28.37;27.03
10366;BME280;5229;41.820;23.490;2023-05-19T10:41:58;90259.09;;;28.36;27.38
10366;BME280;5229;41.820;23.490;2023-05-19T10:44:39;90261.47;;;28.31;27.39
10366;BME280;5229;41.820;23.490;2023-05-19T10:47:06;90263.44;;;28.27;27.88
10366;BME280;5229;41.820;23.490;2023-05-19T10:49:36;90254.06;;;28.15;27.89
10366;BME280;5229;41.820;23.490;2023-05-19T10:52:18;90251.75;;;27.90;28.06
10366;BME280;5229;41.820;23.490;2023-05-19T10:54:45;90255.34;;;27.77;28.43
10366;BME280;5229;41.820;23.490;2023-05-19T10:57:13;90243.31;;;27.65;28.56
10366;BME280;5229;41.820;23.490;2023-05-19T10:59:41;90245.69;;;27.56;28.97
10366;BME280;5229;41.820;23.490;2023-05-19T11:02:10;90243.53;;;27.48;28.58
10366;BME280;5229;41.820;23.490;2023-05-19T11:05:06;90237.72;;;27.26;28.42
10366;BME280;5229;41.820;23.490;2023-05-19T11:07:36;90246.25;;;27.07;28.62
10366;BME280;5229;41.820;23.490;2023-05-19T11:10:06;90240.44;;;26.82;28.69
10366;BME280;5229;41.820;23.490;2023-05-19T11:12:40;90239.94;;;26.54;29.25
10366;BME280;5229;41.820;23.490;2023-05-19T11:15:10;90232.50;;;26.31;29.63
10366;BME280;5229;41.820;23.490;2023-05-19T11:17:38;90235.72;;;26.05;29.53
10366;BME280;5229;41.820;23.490;2023-05-19T11:20:07;90233.56;;;25.86;29.64
10366;BME280;5229;41.820;23.490;2023-05-19T11:22:38;90238.63;;;25.70;30.48
10366;BME280;5229;41.820;23.490;2023-05-19T11:25:06;90242.84;;;25.57;30.49
10366;BME280;5229;41.820;23.490;2023-05-19T11:27:34;90237.59;;;25.46;30.46
10366;BME280;5229;41.820;23.490;2023-05-19T11:30:08;90234.59;;;25.34;30.87
10366;BME280;5229;41.820;23.490;2023-05-19T11:32:39;90238.41;;;25.33;31.18
10366;BME280;5229;41.820;23.490;2023-05-19T11:35:08;90240.72;;;25.31;31.13
10366;BME280;5229;41.820;23.490;2023-05-19T11:37:36;90231.25;;;25.19;30.72
10366;BME280;5229;41.820;23.490;2023-05-19T11:40:06;90233.22;;;24.98;30.91
10366;BME280;5229;41.820;23.490;2023-05-19T11:42:34;90235.53;;;24.78;31.20
10366;BME280;5229;41.820;23.490;2023-05-19T11:45:01;90224.94;;;24.75;31.59
10366;BME280;5229;41.820;23.490;2023-05-19T11:47:30;90227.25;;;24.69;31.40
10366;BME280;5229;41.820;23.490;2023-05-19T11:49:57;90219.66;;;24.61;31.30
10366;BME280;5229;41.820;23.490;2023-05-19T11:52:25;90219.66;;;24.61;31.11
10366;BME280;5229;41.820;23.490;2023-05-19T11:54:54;90228.34;;;24.61;31.41
10366;BME280;5229;41.820;23.490;2023-05-19T11:57:21;90228.75;;;24.56;31.59
10366;BME280;5229;41.820;23.490;2023-05-19T11:59:47;90228.75;;;24.46;31.65
10366;BME280;5229;41.820;23.490;2023-05-19T12:02:18;90225.00;;;24.29;31.62
10366;BME280;5229;41.820;23.490;2023-05-19T12:04:45;90228.03;;;24.10;31.70
10366;BME280;5229;41.820;23.490;2023-05-19T12:07:13;90232.16;;;23.90;31.84
10366;BME280;5229;41.820;23.490;2023-05-19T12:09:42;90228.38;;;23.70;31.69
10366;BME280;5229;41.820;23.490;2023-05-19T12:12:12;90224.53;;;23.50;31.42
10366;BME280;5229;41.820;23.490;2023-05-19T12:14:39;90226.75;;;23.34;31.85
10366;BME280;5229;41.820;23.490;2023-05-19T12:17:09;90222.16;;;23.17;32.43
10366;BME280;5229;41.820;23.490;2023-05-19T12:19:37;90215.28;;;23.02;32.65
10366;BME280;5229;41.820;23.490;2023-05-19T12:22:05;90220.91;;;22.93;32.78
10366;BME280;5229;41.820;23.490;2023-05-19T12:24:32;90227.72;;;22.88;33.09
10366;BME280;5229;41.820;23.490;2023-05-19T12:27:04;90217.47;;;22.82;33.74
10366;BME280;5229;41.820;23.490;2023-05-19T12:29:33;90218.59;;;22.74;33.68
10366;BME280;5229;41.820;23.490;2023-05-19T12:32:00;90217.03;;;22.66;33.32
10366;BME280;5229;41.820;23.490;2023-05-19T12:34:27;90220.75;;;22.58;33.54
10366;BME280;5229;41.820;23.490;2023-05-19T12:36:54;90215.44;;;22.51;33.81
10366;BME280;5229;41.820;23.490;2023-05-19T12:39:21;90219.97;;;22.54;34.16
10366;BME280;5229;41.820;23.490;2023-05-19T12:41:49;90215.13;;;22.63;33.96
10366;BME280;5229;41.820;23.490;2023-05-19T12:44:16;90217.44;;;22.75;34.00
10366;BME280;5229;41.820;23.490;2023-05-19T12:46:44;90212.25;;;22.97;34.21
10366;BME280;5229;41.820;23.490;2023-05-19T12:49:11;90213.47;;;23.17;34.39
10366;BME280;5229;41.820;23.490;2023-05-19T12:51:38;90215.78;;;23.36;34.49
10366;BME280;5229;41.820;23.490;2023-05-19T12:54:04;90210.53;;;23.43;33.83
10366;BME280;5229;41.820;23.490;2023-05-19T12:56:31;90205.22;;;23.39;33.90
10366;BME280;5229;41.820;23.490;2023-05-19T12:58:59;90206.75;;;23.37;33.90
10366;BME280;5229;41.820;23.490;2023-05-19T13:01:28;90208.28;;;23.45;33.88
10366;BME280;5229;41.820;23.490;2023-05-19T13:03:56;90196.94;;;23.55;33.75
10366;BME280;5229;41.820;23.490;2023-05-19T13:06:23;90187.88;;;23.70;34.04
10366;BME280;5229;41.820;23.490;2023-05-19T13:08:49;90190.88;;;23.79;33.84